createdAt,value
2023-04-24T00:01:24.484Z,13.28
2023-04-24T00:03:52.876Z,13.28
2023-04-24T00:06:21.188Z,13.25
2023-04-24T00:08:50.661Z,13.21
2023-04-24T00:11:19.848Z,13.18
2023-04-24T00:13:47.435Z,13.16
2023-04-24T00:16:17.002Z,13.12
2023-04-24T00:23:16.101Z,13.00
2023-04-24T00:25:45.653Z,12.93
2023-04-24T00:28:16.132Z,12.90
2023-04-24T00:30:45.903Z,12.89
2023-04-24T00:33:17.055Z,12.87
2023-04-24T00:35:47.628Z,12.87
2023-04-24T00:38:18.692Z,12.85
2023-04-24T00:40:49.837Z,12.83
2023-04-24T00:43:19.088Z,12.80
2023-04-24T00:45:48.591Z,12.75
2023-04-24T00:48:17.133Z,12.69
2023-04-24T00:50:48.239Z,12.64
2023-04-24T00:53:17.824Z,12.58
2023-04-24T00:55:46.909Z,12.53
2023-04-24T00:58:19.601Z,12.48
2023-04-24T01:00:50.260Z,12.48
2023-04-24T01:03:20.613Z,12.50
2023-04-24T01:05:50.266Z,12.56
2023-04-24T01:08:19.984Z,12.63
2023-04-24T01:10:54.120Z,12.69
2023-04-24T01:13:23.816Z,12.75
2023-04-24T01:15:55.586Z,12.80
2023-04-24T01:18:24.988Z,12.84
2023-04-24T01:20:55.015Z,12.87
2023-04-24T01:23:24.718Z,12.89
2023-04-24T01:25:54.310Z,12.91
2023-04-24T01:28:28.107Z,12.93
2023-04-24T01:31:00.346Z,12.96
2023-04-24T01:33:29.757Z,13.00
2023-04-24T01:35:58.798Z,13.04
2023-04-24T01:38:28.857Z,13.09
2023-04-24T01:40:56.303Z,13.12
2023-04-24T01:43:27.266Z,13.13
2023-04-24T01:45:55.403Z,13.15
2023-04-24T01:48:26.225Z,13.15
2023-04-24T01:50:57.551Z,13.15
2023-04-24T01:53:25.905Z,13.15
2023-04-24T01:55:58.156Z,13.15
2023-04-24T01:58:29.317Z,13.16
2023-04-24T02:01:00.001Z,13.17
2023-04-24T02:03:29.008Z,13.18
2023-04-24T02:06:00.282Z,13.20
2023-04-24T02:08:27.982Z,13.20
2023-04-24T02:10:57.950Z,13.18
2023-04-24T02:13:28.153Z,13.16
2023-04-24T02:15:59.415Z,13.17
2023-04-24T02:18:28.278Z,13.18
2023-04-24T02:20:58.621Z,13.17
2023-04-24T02:23:27.909Z,13.14
2023-04-24T02:25:58.250Z,13.09
2023-04-24T02:28:26.627Z,13.02
2023-04-24T02:30:56.177Z,12.99
2023-04-24T02:33:23.779Z,12.97
2023-04-24T02:35:54.007Z,12.94
2023-04-24T02:38:23.302Z,12.90
2023-04-24T02:40:54.962Z,12.85
2023-04-24T02:43:23.918Z,12.80
2023-04-24T02:45:54.459Z,12.77
2023-04-24T02:48:22.951Z,12.76
2023-04-24T02:50:51.926Z,12.73
2023-04-24T02:53:22.784Z,12.71
2023-04-24T02:55:50.922Z,12.67
2023-04-24T02:58:20.563Z,12.62
2023-04-24T03:00:50.678Z,12.61
2023-04-24T03:03:19.809Z,12.60
2023-04-24T03:05:49.450Z,12.57
2023-04-24T03:08:20.625Z,12.57
2023-04-24T03:10:52.786Z,12.59
2023-04-24T03:13:21.992Z,12.60
2023-04-24T03:15:51.301Z,12.65
2023-04-24T03:18:20.746Z,12.68
2023-04-24T03:20:53.686Z,12.70
2023-04-24T03:23:22.271Z,12.72
2023-04-24T03:25:51.944Z,12.73
2023-04-24T03:28:22.325Z,12.75
2023-04-24T03:30:57.047Z,12.77
2023-04-24T03:33:25.520Z,12.78
2023-04-24T03:36:02.308Z,12.80
2023-04-24T03:38:38.456Z,12.83
2023-04-24T03:41:23.422Z,12.86
2023-04-24T03:43:55.302Z,12.88
2023-04-24T03:46:26.801Z,12.91
2023-04-24T03:49:00.654Z,12.94
2023-04-24T03:51:32.243Z,12.99
2023-04-24T03:54:07.823Z,13.06
2023-04-24T03:56:39.080Z,13.11
2023-04-24T03:59:08.454Z,13.13
2023-04-24T04:01:37.965Z,13.12
2023-04-24T04:04:17.919Z,13.08
2023-04-24T04:06:47.461Z,13.07
2023-04-24T04:09:17.345Z,13.06
2023-04-24T04:11:46.839Z,13.07
2023-04-24T04:14:15.075Z,13.09
2023-04-24T04:16:44.667Z,13.11
2023-04-24T04:19:15.328Z,13.14
2023-04-24T04:21:43.150Z,13.17
2023-04-24T04:24:17.458Z,13.20
2023-04-24T04:26:47.931Z,13.22
2023-04-24T04:29:24.537Z,13.21
2023-04-24T04:31:53.989Z,13.20
2023-04-24T04:34:23.348Z,13.17
2023-04-24T04:36:52.340Z,13.13
2023-04-24T04:39:29.436Z,13.08
2023-04-24T04:42:03.115Z,13.05
2023-04-24T04:44:45.716Z,13.02
2023-04-24T04:48:07.990Z,13.03
2023-04-24T04:51:58.343Z,13.05
2023-04-24T04:54:52.181Z,13.04
2023-04-24T04:57:25.195Z,13.05
2023-04-24T05:00:00.960Z,13.07
2023-04-24T05:03:18.685Z,13.06
2023-04-24T05:06:03.165Z,13.01
2023-04-24T05:08:38.688Z,12.95
2023-04-24T05:11:14.809Z,12.91
2023-04-24T05:13:46.241Z,12.86
2023-04-24T05:16:42.890Z,12.81
2023-04-24T05:19:15.436Z,12.77
2023-04-24T05:21:44.093Z,12.74
2023-04-24T05:24:13.966Z,12.74
2023-04-24T05:27:10.165Z,12.76
2023-04-24T05:30:03.008Z,12.73
2023-04-24T05:32:33.097Z,12.68
2023-04-24T05:35:01.067Z,12.64
2023-04-24T05:37:35.536Z,12.63
2023-04-24T05:40:06.532Z,12.64
2023-04-24T05:42:36.628Z,12.67
2023-04-24T05:45:07.761Z,12.68
2023-04-24T05:47:39.775Z,12.72
2023-04-24T05:50:09.897Z,12.80
2023-04-24T05:52:39.487Z,12.85
2023-04-24T05:55:23.202Z,12.92
2023-04-24T05:57:53.862Z,13.01
2023-04-24T06:00:23.652Z,13.11
2023-04-24T06:02:55.220Z,13.24
2023-04-24T06:05:26.064Z,13.38
2023-04-24T06:07:56.044Z,13.50
2023-04-24T06:10:26.900Z,13.63
2023-04-24T06:13:02.633Z,13.81
2023-04-24T06:15:33.777Z,14.03
2023-04-24T06:18:07.389Z,14.23
2023-04-24T06:20:35.376Z,14.40
2023-04-24T06:23:04.217Z,14.48
2023-04-24T06:25:34.756Z,14.59
2023-04-24T06:28:03.512Z,14.70
2023-04-24T06:30:35.889Z,14.87
2023-04-24T06:33:19.335Z,15.07
2023-04-24T06:35:52.098Z,15.20
2023-04-24T06:38:21.645Z,15.26
2023-04-24T06:40:52.158Z,15.30
2023-04-24T06:43:21.053Z,15.36
2023-04-24T06:45:53.940Z,15.45
2023-04-24T06:48:25.327Z,15.55
2023-04-24T06:50:57.246Z,15.69
2023-04-24T06:53:24.689Z,15.87
2023-04-24T06:55:54.105Z,16.07
2023-04-24T06:58:22.973Z,16.28
2023-04-24T07:00:51.951Z,16.51
2023-04-24T07:03:33.526Z,16.73
2023-04-24T07:06:07.619Z,17.04
2023-04-24T07:08:38.623Z,17.46
2023-04-24T07:11:14.408Z,17.94
2023-04-24T07:13:46.197Z,18.70
2023-04-24T07:16:25.289Z,18.96
2023-04-24T07:18:55.152Z,18.93
2023-04-24T07:21:26.321Z,18.81
2023-04-24T07:23:55.984Z,18.85
2023-04-24T07:40:02.834Z,19.75
2023-04-24T07:42:31.797Z,19.96
2023-04-24T07:45:02.766Z,20.77
2023-04-24T07:47:31.958Z,21.49
2023-04-24T07:50:04.403Z,21.57
2023-04-24T07:52:34.045Z,22.07
2023-04-24T07:55:06.494Z,23.02
2023-04-24T07:57:37.104Z,23.64
2023-04-24T08:00:07.010Z,24.94
2023-04-24T08:02:44.954Z,25.91
2023-04-24T08:05:12.783Z,26.43
2023-04-24T08:07:46.110Z,26.28
2023-04-24T08:10:17.900Z,26.01
2023-04-24T08:12:48.869Z,26.15
2023-04-24T08:15:17.444Z,26.66
2023-04-24T08:24:30.435Z,30.38
2023-04-24T08:26:59.192Z,30.84
2023-04-24T08:29:28.473Z,31.69
2023-04-24T08:31:57.677Z,32.64
2023-04-24T08:34:28.467Z,33.74
2023-04-24T08:36:59.364Z,34.45
2023-04-24T08:39:34.817Z,35.13
2023-04-24T08:42:08.708Z,35.56
2023-04-24T08:44:39.277Z,35.99
2023-04-24T08:47:10.144Z,36.26
2023-04-24T08:49:39.885Z,36.13
2023-04-24T08:52:07.985Z,35.95
2023-04-24T08:54:38.775Z,36.02
2023-04-24T08:57:09.863Z,35.84
2023-04-24T08:59:41.353Z,36.16
2023-04-24T09:02:12.817Z,36.29
2023-04-24T09:04:43.644Z,35.85
2023-04-24T09:07:16.151Z,35.51
2023-04-24T09:09:46.184Z,35.44
2023-04-24T09:12:17.054Z,35.47
2023-04-24T09:14:48.710Z,35.59
2023-04-24T09:17:42.108Z,35.59
2023-04-24T09:20:13.716Z,36.11
2023-04-24T09:22:48.779Z,36.56
2023-04-24T09:28:59.350Z,37.06
2023-04-24T09:31:33.665Z,37.15
2023-04-24T09:34:08.578Z,37.16
2023-04-24T09:36:45.452Z,36.81
2023-04-24T09:39:44.315Z,36.22
2023-04-24T09:42:35.107Z,35.78
2023-04-24T09:45:15.572Z,35.33
2023-04-24T09:47:46.263Z,34.81
2023-04-24T09:50:20.979Z,34.36
2023-04-24T09:53:01.414Z,34.34
2023-04-24T09:55:41.379Z,33.81
2023-04-24T09:58:11.110Z,32.94
2023-04-24T10:01:00.975Z,32.28
2023-04-24T10:03:37.249Z,32.08
2023-04-24T10:32:29.493Z,30.52
2023-04-24T10:35:39.495Z,30.14
2023-04-24T10:38:10.381Z,29.78
2023-04-24T10:40:40.335Z,29.94
2023-04-24T10:43:10.243Z,30.09
2023-04-24T10:45:41.998Z,30.30
2023-04-24T10:48:21.835Z,30.43
2023-04-24T10:50:56.744Z,30.49
2023-04-24T10:53:52.895Z,30.41
2023-04-24T10:56:26.510Z,30.06
2023-04-24T10:58:56.811Z,29.69
2023-04-24T11:01:31.720Z,29.56
2023-04-24T11:04:03.474Z,29.40
2023-04-24T11:06:36.525Z,29.21
2023-04-24T11:09:13.120Z,29.18
2023-04-24T11:11:49.483Z,28.62
2023-04-24T11:14:22.670Z,28.46
2023-04-24T11:16:54.896Z,28.18
2023-04-24T11:19:24.692Z,27.60
2023-04-24T11:22:03.581Z,27.22
2023-04-24T11:24:58.347Z,26.86
2023-04-24T11:27:30.730Z,26.35
2023-04-24T11:29:58.780Z,25.95
2023-04-24T11:32:32.011Z,25.81
2023-04-24T11:35:02.798Z,25.71
2023-04-24T11:37:41.301Z,25.65
2023-04-24T11:40:12.634Z,25.51
2023-04-24T11:42:41.475Z,25.45
2023-04-24T11:45:14.354Z,25.03
2023-04-24T11:47:42.647Z,24.60
2023-04-24T11:50:14.051Z,24.43
2023-04-24T11:52:44.449Z,24.44
2023-04-24T11:55:16.519Z,24.43
2023-04-24T11:57:45.890Z,24.41
2023-04-24T12:00:42.760Z,24.27
2023-04-24T12:03:12.212Z,23.95
2023-04-24T12:05:41.169Z,23.68
2023-04-24T12:08:10.197Z,23.49
2023-04-24T12:10:38.884Z,23.32
2023-04-24T12:13:12.020Z,23.27
2023-04-24T12:15:42.778Z,23.22
2023-04-24T12:18:20.253Z,23.20
2023-04-24T12:20:50.522Z,23.10
2023-04-24T12:23:36.033Z,23.02
2023-04-24T12:26:07.010Z,23.01
2023-04-24T12:28:39.544Z,22.99
2023-04-24T12:31:08.361Z,23.07
2023-04-24T12:33:37.442Z,23.10
2023-04-24T12:36:07.172Z,22.98
2023-04-24T12:38:41.211Z,22.96
2023-04-24T12:41:12.544Z,22.96
2023-04-24T12:43:53.337Z,23.02
2023-04-24T12:46:23.961Z,23.16
2023-04-24T12:48:53.650Z,23.09
2023-04-24T12:51:22.932Z,23.01
2023-04-24T12:53:55.994Z,22.91
2023-04-24T12:56:39.956Z,22.89
2023-04-24T12:59:12.403Z,22.92
2023-04-24T13:01:41.615Z,22.94
2023-04-24T13:04:10.500Z,22.90
2023-04-24T13:06:38.977Z,22.82
2023-04-24T13:09:06.912Z,22.79
2023-04-24T13:11:37.045Z,22.79
2023-04-24T13:14:05.795Z,22.72
2023-04-24T13:16:35.114Z,22.60
2023-04-24T13:19:07.178Z,22.46
2023-04-24T13:21:38.578Z,22.30
2023-04-24T13:24:08.608Z,22.10
2023-04-24T13:26:38.414Z,21.90
2023-04-24T13:29:08.299Z,21.70
2023-04-24T13:31:36.332Z,21.56
2023-04-24T13:34:05.243Z,21.46
2023-04-24T13:36:36.055Z,21.36
2023-04-24T13:39:05.093Z,21.22
2023-04-24T13:41:36.744Z,21.11
2023-04-24T13:44:04.529Z,20.96
2023-04-24T13:46:33.033Z,20.82
2023-04-24T13:49:02.793Z,20.76
2023-04-24T13:51:30.421Z,20.75
2023-04-24T13:54:01.480Z,20.80
2023-04-24T13:56:33.436Z,20.86
2023-04-24T13:59:03.694Z,20.87
2023-04-24T14:01:33.063Z,20.84
2023-04-24T14:04:02.788Z,20.86
2023-04-24T14:06:31.940Z,20.90
2023-04-24T14:09:01.779Z,20.89
2023-04-24T14:11:32.169Z,20.91
2023-04-24T14:14:01.151Z,20.98
2023-04-24T14:16:32.227Z,21.05
2023-04-24T14:19:01.932Z,21.10
2023-04-24T14:21:31.727Z,21.17
2023-04-24T14:24:01.387Z,21.22
2023-04-24T14:26:31.084Z,21.26
2023-04-24T14:29:11.715Z,21.31
2023-04-24T14:31:45.460Z,21.34
2023-04-24T14:34:22.845Z,21.35
2023-04-24T14:36:50.932Z,21.33
2023-04-24T14:39:24.362Z,21.38
2023-04-24T14:41:54.787Z,21.58
2023-04-24T14:44:25.591Z,21.81
2023-04-24T14:47:36.970Z,22.03
2023-04-24T14:50:05.860Z,22.27
2023-04-24T14:53:04.496Z,22.39
2023-04-24T14:55:45.189Z,22.55
2023-04-24T14:59:00.311Z,22.55
2023-04-24T15:01:31.475Z,22.39
2023-04-24T15:04:01.885Z,22.37
2023-04-24T15:06:35.131Z,22.28
2023-04-24T15:09:03.197Z,22.17
2023-04-24T15:11:33.442Z,22.24
2023-04-24T15:14:04.453Z,22.30
2023-04-24T15:16:37.042Z,22.33
2023-04-24T15:19:56.945Z,22.38
2023-04-24T15:22:53.194Z,22.48
2023-04-24T15:25:25.704Z,22.60
2023-04-24T15:27:56.650Z,22.69
2023-04-24T15:30:27.680Z,22.81
2023-04-24T15:32:55.486Z,22.81
2023-04-24T15:35:27.840Z,22.65
2023-04-24T15:37:57.954Z,22.31
2023-04-24T15:40:27.020Z,21.92
2023-04-24T15:42:59.663Z,21.58
2023-04-24T15:45:30.715Z,20.86
2023-04-24T15:52:01.501Z,18.96
2023-04-24T15:54:41.304Z,18.44
2023-04-24T15:57:59.594Z,18.00
2023-04-24T16:00:33.896Z,17.53
2023-04-24T16:03:12.812Z,17.22
2023-04-24T16:06:07.913Z,16.72
2023-04-24T16:09:10.966Z,16.37
2023-04-24T16:11:57.332Z,15.91
2023-04-24T16:14:30.666Z,15.47
2023-04-24T16:17:03.236Z,15.04
2023-04-24T16:19:34.209Z,14.73
2023-04-24T16:22:03.356Z,14.56
2023-04-24T16:24:33.476Z,14.46
2023-04-24T16:27:04.932Z,14.37
2023-04-24T16:30:09.043Z,14.26
2023-04-24T16:32:38.534Z,14.22
2023-04-24T16:35:12.722Z,14.22
2023-04-24T16:37:57.251Z,14.22
2023-04-24T16:40:28.114Z,14.19
2023-04-24T16:42:58.288Z,14.18
2023-04-24T16:45:29.350Z,14.24
2023-04-24T16:47:59.534Z,14.32
2023-04-24T16:50:27.815Z,14.41
2023-04-24T16:52:57.591Z,14.48
2023-04-24T16:55:28.166Z,14.48
2023-04-24T16:57:57.073Z,14.54
2023-04-24T17:00:26.436Z,14.59
2023-04-24T17:02:54.803Z,14.63
2023-04-24T17:05:25.254Z,14.61
2023-04-24T17:07:56.495Z,14.64
2023-04-24T17:10:26.803Z,14.67
2023-04-24T17:12:59.572Z,14.69
2023-04-24T17:15:27.867Z,14.70
2023-04-24T17:17:59.080Z,14.67
2023-04-24T17:20:35.469Z,14.68
2023-04-24T17:23:12.025Z,14.68
2023-04-24T17:25:42.208Z,14.61
2023-04-24T17:28:27.913Z,14.46
2023-04-24T17:31:00.253Z,14.40
2023-04-24T17:33:29.616Z,14.39
2023-04-24T17:36:03.609Z,14.40
2023-04-24T17:38:36.781Z,14.42
2023-04-24T17:41:07.762Z,14.36
2023-04-24T17:43:39.204Z,14.25
2023-04-24T17:46:09.531Z,14.18
2023-04-24T17:48:42.214Z,14.13
2023-04-24T17:51:12.578Z,14.11
2023-04-24T17:53:42.261Z,14.09
2023-04-24T17:56:15.963Z,14.07
2023-04-24T17:58:45.320Z,14.07
2023-04-24T18:01:31.128Z,14.04
2023-04-24T18:04:03.240Z,13.99
2023-04-24T18:06:33.116Z,13.90
2023-04-24T18:12:32.370Z,13.83
2023-04-24T18:15:21.160Z,13.79
2023-04-24T18:17:57.046Z,13.81
2023-04-24T18:20:36.448Z,13.76
2023-04-24T18:23:09.270Z,13.79
2023-04-24T18:25:40.445Z,13.87
2023-04-24T18:28:15.679Z,13.99
2023-04-24T18:30:47.724Z,14.07
2023-04-24T18:33:19.400Z,14.21
2023-04-24T18:35:52.306Z,14.29
2023-04-24T18:38:26.332Z,14.29
2023-04-24T18:41:00.376Z,14.25
2023-04-24T18:43:40.436Z,14.09
2023-04-24T18:46:15.974Z,13.94
2023-04-24T18:48:49.197Z,13.86
2023-04-24T18:51:26.862Z,13.88
2023-04-24T18:53:57.668Z,13.95
2023-04-24T18:56:30.260Z,14.04
2023-04-24T18:59:00.781Z,13.98
2023-04-24T19:01:45.795Z,13.93
2023-04-24T19:07:31.157Z,13.97
2023-04-24T19:10:12.208Z,13.93
2023-04-24T19:12:45.950Z,13.88
2023-04-24T19:15:20.718Z,13.83
2023-04-24T19:17:58.883Z,13.78
2023-04-24T19:20:45.333Z,13.73
2023-04-24T19:23:19.685Z,13.68
2023-04-24T19:25:51.101Z,13.61
2023-04-24T19:28:22.500Z,13.56
2023-04-24T19:30:53.787Z,13.52
2023-04-24T19:33:26.104Z,13.46
2023-04-24T19:36:00.811Z,13.40
2023-04-24T19:38:35.863Z,13.37
2023-04-24T19:41:08.665Z,13.27
2023-04-24T19:43:46.196Z,13.11
2023-04-24T19:46:23.895Z,12.95
2023-04-24T19:49:00.495Z,12.83
2023-04-24T19:51:29.675Z,12.76
2023-04-24T19:54:00.110Z,12.74
2023-04-24T19:56:28.986Z,12.75
2023-04-24T19:59:22.503Z,12.76
2023-04-24T20:01:53.077Z,12.76
2023-04-24T20:04:23.509Z,12.74
2023-04-24T20:06:51.697Z,12.72
2023-04-24T20:09:19.886Z,12.71
2023-04-24T20:11:51.523Z,12.70
2023-04-24T20:14:22.647Z,12.71
2023-04-24T20:16:55.580Z,12.68
2023-04-24T20:19:24.671Z,12.66
2023-04-24T20:21:55.153Z,12.65
2023-04-24T20:24:29.506Z,12.61
2023-04-24T20:26:57.574Z,12.57
2023-04-24T20:29:26.113Z,12.52
2023-04-24T20:31:55.153Z,12.48
2023-04-24T20:34:24.243Z,12.43
2023-04-24T20:36:52.443Z,12.40
2023-04-24T20:39:21.003Z,12.38
2023-04-24T20:41:50.635Z,12.38
2023-04-24T20:44:18.410Z,12.40
2023-04-24T20:46:47.265Z,12.44
2023-04-24T20:49:17.993Z,12.49
2023-04-24T20:51:45.977Z,12.52
2023-04-24T20:54:13.871Z,12.51
2023-04-24T20:56:44.041Z,12.47
2023-04-24T20:59:11.994Z,12.44
2023-04-24T21:01:48.222Z,12.45
2023-04-24T21:04:18.402Z,12.45
2023-04-24T21:06:47.308Z,12.45
2023-04-24T21:09:18.717Z,12.45
2023-04-24T21:11:48.183Z,12.43
2023-04-24T21:14:17.182Z,12.42
2023-04-24T21:16:47.226Z,12.42
2023-04-24T21:19:16.542Z,12.44
2023-04-24T21:21:45.856Z,12.46
2023-04-24T21:24:14.107Z,12.47
2023-04-24T21:26:44.799Z,12.49
2023-04-24T21:29:13.949Z,12.48
2023-04-24T21:31:43.022Z,12.49
2023-04-24T21:34:11.086Z,12.49
2023-04-24T21:36:39.533Z,12.48
2023-04-24T21:39:09.070Z,12.43
2023-04-24T21:41:38.557Z,12.37
2023-04-24T21:44:08.737Z,12.31
2023-04-24T21:46:37.215Z,12.26
2023-04-24T21:49:05.118Z,12.23
2023-04-24T21:51:35.395Z,12.22
2023-04-24T21:54:03.472Z,12.24
2023-04-24T21:56:35.866Z,12.24
2023-04-24T21:59:04.481Z,12.22
2023-04-24T22:01:34.086Z,12.24
2023-04-24T22:04:04.673Z,12.26
2023-04-24T22:06:33.562Z,12.25
2023-04-24T22:09:01.068Z,12.24
2023-04-24T22:11:30.811Z,12.28
2023-04-24T22:14:00.868Z,12.31
2023-04-24T22:16:31.250Z,12.28
2023-04-24T22:19:01.018Z,12.24
2023-04-24T22:21:33.802Z,12.22
2023-04-24T22:24:05.413Z,12.20
2023-04-24T22:26:33.796Z,12.19
2023-04-24T22:29:01.858Z,12.15
2023-04-24T22:31:34.226Z,12.10
2023-04-24T22:34:02.816Z,12.06
2023-04-24T22:36:33.188Z,12.00
2023-04-24T22:39:01.362Z,11.96
2023-04-24T22:41:29.882Z,11.92
2023-04-24T22:44:00.658Z,11.88
2023-04-24T22:46:30.733Z,11.86
2023-04-24T22:49:01.223Z,11.85
2023-04-24T22:51:33.128Z,11.87
2023-04-24T22:54:04.866Z,11.89
2023-04-24T22:56:33.905Z,11.91
2023-04-24T22:59:04.455Z,11.91
2023-04-24T23:01:35.024Z,11.92
2023-04-24T23:04:04.227Z,11.94
2023-04-24T23:06:32.474Z,11.96
2023-04-24T23:09:02.356Z,11.94
2023-04-24T23:11:33.354Z,11.92
2023-04-24T23:14:02.835Z,11.93
2023-04-24T23:16:32.698Z,11.92
2023-04-24T23:19:01.590Z,11.93
2023-04-24T23:21:29.206Z,11.94
2023-04-24T23:23:57.561Z,11.94
2023-04-24T23:26:27.750Z,11.95
2023-04-24T23:28:58.084Z,11.97
2023-04-24T23:31:28.789Z,11.98
2023-04-24T23:33:56.672Z,12.00
2023-04-24T23:36:24.597Z,12.01
2023-04-24T23:38:53.652Z,12.02
2023-04-24T23:41:22.464Z,12.00
2023-04-24T23:43:52.389Z,11.98
2023-04-24T23:46:21.638Z,11.99
2023-04-24T23:48:53.031Z,11.98
2023-04-24T23:51:21.200Z,11.97
2023-04-24T23:53:50.221Z,11.97
2023-04-24T23:56:21.994Z,11.96
2023-04-24T23:58:51.626Z,11.95
